LFPGEBBR

Guest
Details From LFPG - Paris Charles De Gaulle
To EBBR - Brussels Airport
Flight Number -
Tags generated
Created
Modified
Stats Distance 136 nm / 252 km
Max Altitude 15,400 ft / 4,694 m
Waypoints 3
Social Downloads 0
Likes 0
Share VATSIM

Download

Looking for another format? Having issues loading an existing format? Contact us
Advertisement - Login to hide

Notes

Basic altitude profile: - Ascent Rate: 2400ft/min - Ascent Speed: 245kts - Cruise Altitude: 14000ft - Cruise Speed: 280kts - Descent Rate: 1400ft/min - Descent Speed: 240kts Options: - Use NATs: yes - Use PACOTS: yes - Use low airways: yes - Use high airways: yes

Route

LFPG BILGO EBBR

ID Type Via Altitude Latitude Longitude Leg Dist Tot Dist Heading (true) Name
O LFPG APT - 0 ft / 0 m 49.00974˚ 2.56262˚ - 0 nm - Paris Charles De Gaulle
BILGO FIX - 15,400 ft / 4,694 m 49.90194˚ 3.44722˚ 63 nm 63 nm 32° / 33° -
O EBBR APT - 0 ft / 0 m 50.89995˚ 4.49281˚ 72 nm 135 nm 33° / 34° Brussels Airport

Altitude Profile

Advertisement - Login to hide

LFPG

Details ICAO LFPG (CDG)
Name Paris Charles De Gaulle
Region France
Timezone Europe/Paris (UTC+2.0)
Stats Elevation 392 ft / 119 m (AMSL)
Location 49.009742° 2.562619°
Runways 4
Magnetic Variation 0.720° E

METAR

LFPG 171930Z 36004KT CAVOK 23/10 Q1018 NOSIG

Decode

TAF

TAF LFPG 171700Z 1718/1824 35006KT CAVOK TX28/1815Z TN15/1804Z BECMG 1721/1724 02005KT

Decode

Departure Runways

ID Width Length Bearing (true) Bearing (mag) Surface Threshold Offset Overrun Length
08L 148 ft / 45 m 14,039 ft / 4,279 m 85.37° 84.65° Asphalt 0 ft / 0 m 0 ft / 0 m
08R 197 ft / 60 m 8,797 ft / 2,681 m 85.39° 84.67° Asphalt 0 ft / 0 m 0 ft / 0 m
09L 197 ft / 60 m 8,835 ft / 2,693 m 85.39° 84.67° Asphalt 0 ft / 0 m 0 ft / 0 m
09R 148 ft / 45 m 13,744 ft / 4,189 m 85.38° 84.66° Asphalt 0 ft / 0 m 0 ft / 0 m
26L 197 ft / 60 m 8,797 ft / 2,681 m 265.41° 264.69° Asphalt 0 ft / 0 m 0 ft / 0 m
26R 148 ft / 45 m 14,039 ft / 4,279 m 265.41° 264.69° Asphalt 1,893 ft / 577 m 0 ft / 0 m
27L 148 ft / 45 m 13,744 ft / 4,189 m 265.42° 264.70° Asphalt 1,969 ft / 600 m 0 ft / 0 m
27R 197 ft / 60 m 8,835 ft / 2,693 m 265.41° 264.69° Asphalt 0 ft / 0 m 0 ft / 0 m

EBBR

Details ICAO EBBR (BRU)
Name Brussels Airport
Region Belgium
Timezone Europe/Brussels (UTC+2.0)
Stats Elevation 184 ft / 56 m (AMSL)
Location 50.899948° 4.492814°
Runways 3
Magnetic Variation 1.204° E

METAR

EBBR 171920Z 35005KT 310V010 CAVOK 20/09 Q1017 NOSIG

Decode

TAF

TAF EBBR 171700Z 1718/1824 VRB05KT CAVOK= TAF EDDF 171700Z 1718/1824 30010KT CAVOK PROB30 TEMPO 1718/1719 30015G25KT TSRA SCT050CB BECMG 1719/1721 32005KT BECMG 1818/1820 03005KT

Decode

Destination Runways

ID Width Length Bearing (true) Bearing (mag) Surface Threshold Offset Overrun Length
02 164 ft / 50 m 9,896 ft / 3,016 m 14.41° 13.21° Asphalt 249 ft / 76 m 0 ft / 0 m
07L 148 ft / 45 m 12,106 ft / 3,690 m 65.16° 63.96° Asphalt 801 ft / 244 m 0 ft / 0 m
07R 148 ft / 45 m 10,703 ft / 3,262 m 69.90° 68.70° Asphalt 499 ft / 152 m 0 ft / 0 m
20 164 ft / 50 m 9,896 ft / 3,016 m 194.42° 193.22° Asphalt 751 ft / 229 m 0 ft / 0 m
25L 148 ft / 45 m 10,703 ft / 3,262 m 249.93° 248.73° Asphalt 499 ft / 152 m 0 ft / 0 m
25R 148 ft / 45 m 12,106 ft / 3,690 m 245.20° 244.00° Asphalt 801 ft / 244 m 0 ft / 0 m

Approach Navaids

Runway Type Ident Frequency Range Bearing (true) Bearing (mag) Slope Elevation
02 Localiser IBX 109.90 MHz 18 nm / 33 km 14.41° 13.21° - 184 ft / 56 m (AMSL)
02 Glidescope IBX 109.90 MHz 10 nm / 19 km 14.41° 13.21° 3.00° 184 ft / 56 m (AMSL)
02 DME IBX 109.90 MHz 18 nm / 33 km - - - 184 ft / 56 m (AMSL)
20 Localiser IBM 111.15 MHz 18 nm / 33 km 194.48° 193.27° - 184 ft / 56 m (AMSL)
20 Glidescope IBM 111.15 MHz 10 nm / 19 km 194.41° 193.21° 3.00° 184 ft / 56 m (AMSL)
20 DME IBM 111.15 MHz 18 nm / 33 km - - - 184 ft / 56 m (AMSL)
25L Localiser IBL 110.35 MHz 18 nm / 33 km 249.89° 248.68° - 184 ft / 56 m (AMSL)
25L Glidescope IBL 110.35 MHz 10 nm / 19 km 249.91° 248.71° 3.00° 184 ft / 56 m (AMSL)
25R Localiser IBR 108.90 MHz 18 nm / 33 km 245.34° 244.13° - 184 ft / 56 m (AMSL)
25R Glidescope IBR 108.90 MHz 10 nm / 19 km 245.18° 243.98° 3.00° 184 ft / 56 m (AMSL)
25R DME IBR 108.90 MHz 18 nm / 33 km - - - 184 ft / 56 m (AMSL)

Popular Alternatives